Terminal Aerodrome Forecast
Issued by NWS Lake Charles, LA

Home | Current Version | Previous Version | Text Only | Print | Product List | Glossary On
Versions: 1 2 3 4 5 6 7 8 9 10 11 12 13
000
FTUS44 KLCH 281522 AAA
TAFLFT
TAF AMD
KLFT 281522Z 2815/2912 VRB05KT P6SM VCSH SCT015 BKN120
      TEMPO 2815/2818 BKN015
     FM281800 14008KT P6SM VCTS SCT030CB BKN060
     FM290200 VRB04KT P6SM BKN100=

USA.gov is the U.S. government's official web portal to all federal, state and local government web resources and services.